sensor_id;sensor_type;location;lat;lon;timestamp;P1;durP1;ratioP1;P2;durP2;ratioP2
1467;SDS011;727;48.892;9.544;2023-02-18T00:02:14;9.60;;;5.67;;
1467;SDS011;727;48.892;9.544;2023-02-18T00:04:41;6.43;;;3.40;;
1467;SDS011;727;48.892;9.544;2023-02-18T00:07:08;7.80;;;4.20;;
1467;SDS011;727;48.892;9.544;2023-02-18T00:09:36;8.90;;;6.17;;
1467;SDS011;727;48.892;9.544;2023-02-18T00:12:05;4.73;;;3.80;;
1467;SDS011;727;48.892;9.544;2023-02-18T00:14:32;2.40;;;2.20;;
1467;SDS011;727;48.892;9.544;2023-02-18T00:16:58;2.40;;;2.20;;
1467;SDS011;727;48.892;9.544;2023-02-18T00:19:25;9.40;;;5.00;;
1467;SDS011;727;48.892;9.544;2023-02-18T00:21:52;3.23;;;2.60;;
1467;SDS011;727;48.892;9.544;2023-02-18T00:24:18;1.77;;;1.50;;
1467;SDS011;727;48.892;9.544;2023-02-18T00:26:48;2.70;;;2.27;;
1467;SDS011;727;48.892;9.544;2023-02-18T00:29:17;3.20;;;2.23;;
1467;SDS011;727;48.892;9.544;2023-02-18T00:31:45;4.77;;;3.63;;
1467;SDS011;727;48.892;9.544;2023-02-18T00:34:12;3.33;;;2.90;;
1467;SDS011;727;48.892;9.544;2023-02-18T00:36:39;4.90;;;3.40;;
1467;SDS011;727;48.892;9.544;2023-02-18T00:39:07;3.90;;;2.77;;
1467;SDS011;727;48.892;9.544;2023-02-18T00:41:35;12.53;;;9.80;;
1467;SDS011;727;48.892;9.544;2023-02-18T00:44:03;5.20;;;2.87;;
1467;SDS011;727;48.892;9.544;2023-02-18T00:46:31;6.00;;;4.80;;
1467;SDS011;727;48.892;9.544;2023-02-18T00:48:59;6.10;;;4.23;;
1467;SDS011;727;48.892;9.544;2023-02-18T00:51:26;13.80;;;6.20;;
1467;SDS011;727;48.892;9.544;2023-02-18T00:53:53;5.23;;;3.50;;
1467;SDS011;727;48.892;9.544;2023-02-18T00:56:20;6.87;;;5.10;;
1467;SDS011;727;48.892;9.544;2023-02-18T00:58:46;11.07;;;7.03;;
1467;SDS011;727;48.892;9.544;2023-02-18T01:01:13;7.43;;;4.57;;
1467;SDS011;727;48.892;9.544;2023-02-18T01:03:42;10.37;;;6.37;;
1467;SDS011;727;48.892;9.544;2023-02-18T01:06:09;8.83;;;5.23;;
1467;SDS011;727;48.892;9.544;2023-02-18T01:08:37;12.70;;;7.30;;
1467;SDS011;727;48.892;9.544;2023-02-18T01:11:05;8.30;;;5.40;;
1467;SDS011;727;48.892;9.544;2023-02-18T01:13:33;17.83;;;10.53;;
1467;SDS011;727;48.892;9.544;2023-02-18T01:16:00;16.70;;;9.70;;
1467;SDS011;727;48.892;9.544;2023-02-18T01:18:27;9.50;;;4.77;;
1467;SDS011;727;48.892;9.544;2023-02-18T01:20:55;10.87;;;6.40;;
1467;SDS011;727;48.892;9.544;2023-02-18T01:23:23;3.77;;;2.77;;
1467;SDS011;727;48.892;9.544;2023-02-18T01:25:49;3.00;;;1.90;;
1467;SDS011;727;48.892;9.544;2023-02-18T01:28:17;15.17;;;9.00;;
1467;SDS011;727;48.892;9.544;2023-02-18T01:30:45;16.53;;;7.70;;
1467;SDS011;727;48.892;9.544;2023-02-18T01:33:12;6.30;;;4.23;;
1467;SDS011;727;48.892;9.544;2023-02-18T01:35:39;9.30;;;4.77;;
1467;SDS011;727;48.892;9.544;2023-02-18T01:38:07;13.77;;;8.23;;
1467;SDS011;727;48.892;9.544;2023-02-18T01:40:35;26.10;;;14.37;;
1467;SDS011;727;48.892;9.544;2023-02-18T01:43:09;4.67;;;3.50;;
1467;SDS011;727;48.892;9.544;2023-02-18T01:48:34;13.33;;;7.40;;
1467;SDS011;727;48.892;9.544;2023-02-18T01:51:04;14.93;;;9.03;;
1467;SDS011;727;48.892;9.544;2023-02-18T01:53:38;3.83;;;2.37;;
1467;SDS011;727;48.892;9.544;2023-02-18T01:56:10;10.07;;;5.37;;
1467;SDS011;727;48.892;9.544;2023-02-18T01:58:39;7.07;;;4.32;;
1467;SDS011;727;48.892;9.544;2023-02-18T02:01:08;7.10;;;4.77;;
1467;SDS011;727;48.892;9.544;2023-02-18T02:03:36;4.30;;;3.80;;
1467;SDS011;727;48.892;9.544;2023-02-18T02:06:05;5.03;;;4.37;;
1467;SDS011;727;48.892;9.544;2023-02-18T02:08:38;7.43;;;3.87;;
1467;SDS011;727;48.892;9.544;2023-02-18T02:11:07;3.27;;;2.70;;
1467;SDS011;727;48.892;9.544;2023-02-18T02:13:48;2.93;;;2.70;;
1467;SDS011;727;48.892;9.544;2023-02-18T02:16:27;2.90;;;2.47;;
1467;SDS011;727;48.892;9.544;2023-02-18T02:19:04;3.33;;;2.43;;
1467;SDS011;727;48.892;9.544;2023-02-18T02:21:49;2.93;;;2.20;;
1467;SDS011;727;48.892;9.544;2023-02-18T02:27:22;1.70;;;1.60;;
1467;SDS011;727;48.892;9.544;2023-02-18T02:36:17;1.90;;;1.80;;
1467;SDS011;727;48.892;9.544;2023-02-18T02:38:52;10.70;;;2.67;;
1467;SDS011;727;48.892;9.544;2023-02-18T02:41:27;1.70;;;1.60;;
1467;SDS011;727;48.892;9.544;2023-02-18T02:44:03;1.20;;;1.10;;
1467;SDS011;727;48.892;9.544;2023-02-18T02:46:38;1.70;;;1.60;;
1467;SDS011;727;48.892;9.544;2023-02-18T02:49:12;3.33;;;3.00;;
1467;SDS011;727;48.892;9.544;2023-02-18T02:51:51;3.10;;;2.80;;
1467;SDS011;727;48.892;9.544;2023-02-18T02:54:24;2.57;;;2.37;;
1467;SDS011;727;48.892;9.544;2023-02-18T02:57:03;1.83;;;1.73;;
1467;SDS011;727;48.892;9.544;2023-02-18T02:59:33;2.20;;;2.00;;
1467;SDS011;727;48.892;9.544;2023-02-18T03:02:07;2.20;;;2.10;;
1467;SDS011;727;48.892;9.544;2023-02-18T03:07:38;2.70;;;1.90;;
1467;SDS011;727;48.892;9.544;2023-02-18T03:10:32;1.83;;;1.63;;
1467;SDS011;727;48.892;9.544;2023-02-18T03:13:09;1.80;;;1.70;;
1467;SDS011;727;48.892;9.544;2023-02-18T03:15:46;2.30;;;2.10;;
1467;SDS011;727;48.892;9.544;2023-02-18T03:18:21;2.10;;;1.90;;
1467;SDS011;727;48.892;9.544;2023-02-18T03:20:52;1.87;;;1.77;;
1467;SDS011;727;48.892;9.544;2023-02-18T03:23:26;1.70;;;1.60;;
1467;SDS011;727;48.892;9.544;2023-02-18T03:25:57;1.60;;;1.50;;
1467;SDS011;727;48.892;9.544;2023-02-18T03:28:25;1.80;;;1.70;;
1467;SDS011;727;48.892;9.544;2023-02-18T03:30:57;1.90;;;1.80;;
1467;SDS011;727;48.892;9.544;2023-02-18T03:33:29;2.73;;;1.73;;
1467;SDS011;727;48.892;9.544;2023-02-18T03:35:59;2.07;;;1.87;;
1467;SDS011;727;48.892;9.544;2023-02-18T03:38:30;1.77;;;1.30;;
1467;SDS011;727;48.892;9.544;2023-02-18T03:41:01;2.17;;;1.93;;
1467;SDS011;727;48.892;9.544;2023-02-18T03:43:28;1.87;;;1.77;;
1467;SDS011;727;48.892;9.544;2023-02-18T03:45:55;1.60;;;1.50;;
1467;SDS011;727;48.892;9.544;2023-02-18T03:48:22;1.80;;;1.70;;
1467;SDS011;727;48.892;9.544;2023-02-18T03:50:49;2.60;;;2.40;;
1467;SDS011;727;48.892;9.544;2023-02-18T03:53:15;2.40;;;1.93;;
1467;SDS011;727;48.892;9.544;2023-02-18T03:55:44;1.70;;;1.60;;
1467;SDS011;727;48.892;9.544;2023-02-18T03:58:10;2.00;;;1.90;;
1467;SDS011;727;48.892;9.544;2023-02-18T04:00:37;1.90;;;1.80;;
1467;SDS011;727;48.892;9.544;2023-02-18T04:03:04;6.90;;;2.13;;
1467;SDS011;727;48.892;9.544;2023-02-18T04:05:31;1.97;;;1.73;;
1467;SDS011;727;48.892;9.544;2023-02-18T04:07:57;2.13;;;1.90;;
1467;SDS011;727;48.892;9.544;2023-02-18T04:10:24;2.17;;;2.00;;
1467;SDS011;727;48.892;9.544;2023-02-18T04:12:52;1.90;;;1.80;;
1467;SDS011;727;48.892;9.544;2023-02-18T04:15:19;1.93;;;1.83;;
1467;SDS011;727;48.892;9.544;2023-02-18T04:17:46;1.90;;;1.80;;
1467;SDS011;727;48.892;9.544;2023-02-18T04:20:13;2.20;;;1.87;;
1467;SDS011;727;48.892;9.544;2023-02-18T04:22:40;2.40;;;1.97;;
1467;SDS011;727;48.892;9.544;2023-02-18T04:25:07;1.90;;;1.80;;
1467;SDS011;727;48.892;9.544;2023-02-18T04:27:34;1.70;;;1.60;;
1467;SDS011;727;48.892;9.544;2023-02-18T04:30:02;3.57;;;1.80;;
1467;SDS011;727;48.892;9.544;2023-02-18T04:32:29;1.60;;;1.50;;
1467;SDS011;727;48.892;9.544;2023-02-18T04:34:56;1.60;;;1.50;;
1467;SDS011;727;48.892;9.544;2023-02-18T04:37:23;1.87;;;1.77;;
1467;SDS011;727;48.892;9.544;2023-02-18T04:39:50;1.73;;;1.63;;
1467;SDS011;727;48.892;9.544;2023-02-18T04:42:16;2.97;;;2.77;;
1467;SDS011;727;48.892;9.544;2023-02-18T04:44:43;3.40;;;1.77;;
1467;SDS011;727;48.892;9.544;2023-02-18T04:47:12;2.57;;;1.83;;
1467;SDS011;727;48.892;9.544;2023-02-18T04:49:38;1.53;;;1.43;;
1467;SDS011;727;48.892;9.544;2023-02-18T04:52:05;1.87;;;1.70;;
1467;SDS011;727;48.892;9.544;2023-02-18T04:54:32;2.00;;;1.80;;
1467;SDS011;727;48.892;9.544;2023-02-18T04:56:59;2.17;;;1.97;;
1467;SDS011;727;48.892;9.544;2023-02-18T04:59:25;1.53;;;1.43;;
1467;SDS011;727;48.892;9.544;2023-02-18T05:01:52;2.20;;;2.00;;
1467;SDS011;727;48.892;9.544;2023-02-18T05:04:20;2.40;;;2.10;;
1467;SDS011;727;48.892;9.544;2023-02-18T05:06:47;2.47;;;2.27;;
1467;SDS011;727;48.892;9.544;2023-02-18T05:09:14;3.60;;;3.30;;
1467;SDS011;727;48.892;9.544;2023-02-18T05:11:41;7.27;;;6.57;;
1467;SDS011;727;48.892;9.544;2023-02-18T05:14:08;3.87;;;3.57;;
1467;SDS011;727;48.892;9.544;2023-02-18T05:16:34;2.90;;;2.17;;
1467;SDS011;727;48.892;9.544;2023-02-18T05:19:01;1.70;;;1.60;;
1467;SDS011;727;48.892;9.544;2023-02-18T05:21:29;3.63;;;2.00;;
1467;SDS011;727;48.892;9.544;2023-02-18T05:23:56;2.03;;;1.93;;
1467;SDS011;727;48.892;9.544;2023-02-18T05:26:23;2.03;;;1.83;;
1467;SDS011;727;48.892;9.544;2023-02-18T05:28:50;2.87;;;2.67;;
1467;SDS011;727;48.892;9.544;2023-02-18T05:31:16;4.83;;;3.57;;
1467;SDS011;727;48.892;9.544;2023-02-18T05:33:43;7.17;;;3.77;;
1467;SDS011;727;48.892;9.544;2023-02-18T05:36:11;5.10;;;3.47;;
1467;SDS011;727;48.892;9.544;2023-02-18T05:38:39;6.40;;;3.23;;
1467;SDS011;727;48.892;9.544;2023-02-18T05:41:06;5.10;;;3.03;;
1467;SDS011;727;48.892;9.544;2023-02-18T05:43:33;4.07;;;2.77;;
1467;SDS011;727;48.892;9.544;2023-02-18T05:46:20;1.70;;;1.60;;
1467;SDS011;727;48.892;9.544;2023-02-18T05:48:47;1.60;;;1.50;;
1467;SDS011;727;48.892;9.544;2023-02-18T05:51:14;2.40;;;2.20;;
1467;SDS011;727;48.892;9.544;2023-02-18T05:53:42;2.13;;;1.97;;
1467;SDS011;727;48.892;9.544;2023-02-18T05:56:09;1.87;;;1.77;;
1467;SDS011;727;48.892;9.544;2023-02-18T05:58:36;3.40;;;2.10;;
1467;SDS011;727;48.892;9.544;2023-02-18T06:01:02;6.30;;;2.13;;
1467;SDS011;727;48.892;9.544;2023-02-18T06:03:29;1.63;;;1.52;;
1467;SDS011;727;48.892;9.544;2023-02-18T06:05:56;1.83;;;1.63;;
1467;SDS011;727;48.892;9.544;2023-02-18T06:08:23;1.97;;;1.83;;
1467;SDS011;727;48.892;9.544;2023-02-18T06:10:51;2.70;;;1.90;;
1467;SDS011;727;48.892;9.544;2023-02-18T06:13:18;1.73;;;1.63;;
1467;SDS011;727;48.892;9.544;2023-02-18T06:15:44;1.60;;;1.50;;
1467;SDS011;727;48.892;9.544;2023-02-18T06:18:11;1.95;;;1.63;;
1467;SDS011;727;48.892;9.544;2023-02-18T06:20:38;1.83;;;1.60;;
1467;SDS011;727;48.892;9.544;2023-02-18T06:23:06;1.60;;;1.50;;
1467;SDS011;727;48.892;9.544;2023-02-18T06:25:33;1.70;;;1.60;;
1467;SDS011;727;48.892;9.544;2023-02-18T06:28:01;1.80;;;1.70;;
1467;SDS011;727;48.892;9.544;2023-02-18T06:30:28;1.90;;;1.80;;
1467;SDS011;727;48.892;9.544;2023-02-18T06:32:54;2.13;;;1.87;;
1467;SDS011;727;48.892;9.544;2023-02-18T06:35:21;3.07;;;1.77;;
1467;SDS011;727;48.892;9.544;2023-02-18T06:37:48;1.63;;;1.53;;
1467;SDS011;727;48.892;9.544;2023-02-18T06:40:15;2.00;;;1.70;;
1467;SDS011;727;48.892;9.544;2023-02-18T06:42:42;4.53;;;2.20;;
1467;SDS011;727;48.892;9.544;2023-02-18T06:45:10;3.60;;;2.17;;
1467;SDS011;727;48.892;9.544;2023-02-18T06:47:37;2.30;;;2.10;;
1467;SDS011;727;48.892;9.544;2023-02-18T06:50:05;3.70;;;3.37;;
1467;SDS011;727;48.892;9.544;2023-02-18T06:52:33;5.30;;;4.47;;
1467;SDS011;727;48.892;9.544;2023-02-18T06:54:59;6.80;;;6.20;;
1467;SDS011;727;48.892;9.544;2023-02-18T06:57:26;5.13;;;4.63;;
1467;SDS011;727;48.892;9.544;2023-02-18T06:59:53;3.42;;;2.85;;
1467;SDS011;727;48.892;9.544;2023-02-18T07:02:21;6.30;;;4.87;;
1467;SDS011;727;48.892;9.544;2023-02-18T07:04:48;2.90;;;2.70;;
1467;SDS011;727;48.892;9.544;2023-02-18T07:07:14;2.63;;;2.43;;
1467;SDS011;727;48.892;9.544;2023-02-18T07:09:41;3.10;;;2.87;;
1467;SDS011;727;48.892;9.544;2023-02-18T07:12:08;3.97;;;2.80;;
1467;SDS011;727;48.892;9.544;2023-02-18T07:14:35;6.27;;;5.50;;
1467;SDS011;727;48.892;9.544;2023-02-18T07:17:02;8.87;;;7.83;;
1467;SDS011;727;48.892;9.544;2023-02-18T07:19:30;13.00;;;8.63;;
1467;SDS011;727;48.892;9.544;2023-02-18T07:21:56;13.10;;;7.37;;
1467;SDS011;727;48.892;9.544;2023-02-18T07:24:24;10.07;;;6.33;;
1467;SDS011;727;48.892;9.544;2023-02-18T07:26:51;14.10;;;10.10;;
1467;SDS011;727;48.892;9.544;2023-02-18T07:29:17;3.30;;;2.80;;
1467;SDS011;727;48.892;9.544;2023-02-18T07:31:44;9.53;;;8.50;;
1467;SDS011;727;48.892;9.544;2023-02-18T07:34:14;17.53;;;10.27;;
1467;SDS011;727;48.892;9.544;2023-02-18T07:36:46;10.37;;;7.33;;
1467;SDS011;727;48.892;9.544;2023-02-18T07:39:12;8.00;;;6.20;;
1467;SDS011;727;48.892;9.544;2023-02-18T07:41:40;12.63;;;7.63;;
1467;SDS011;727;48.892;9.544;2023-02-18T07:44:07;15.30;;;9.63;;
1467;SDS011;727;48.892;9.544;2023-02-18T07:46:34;18.03;;;11.30;;
1467;SDS011;727;48.892;9.544;2023-02-18T07:49:04;30.87;;;17.13;;
1467;SDS011;727;48.892;9.544;2023-02-18T07:51:31;14.63;;;9.10;;
1467;SDS011;727;48.892;9.544;2023-02-18T07:53:59;21.03;;;8.77;;
1467;SDS011;727;48.892;9.544;2023-02-18T07:56:26;15.93;;;10.70;;
1467;SDS011;727;48.892;9.544;2023-02-18T07:58:53;14.43;;;8.40;;
1467;SDS011;727;48.892;9.544;2023-02-18T08:01:19;16.17;;;9.37;;
1467;SDS011;727;48.892;9.544;2023-02-18T08:03:46;5.47;;;4.97;;
1467;SDS011;727;48.892;9.544;2023-02-18T08:06:18;7.50;;;5.70;;
1467;SDS011;727;48.892;9.544;2023-02-18T08:08:47;9.33;;;5.90;;
1467;SDS011;727;48.892;9.544;2023-02-18T08:11:15;14.47;;;5.30;;
1467;SDS011;727;48.892;9.544;2023-02-18T08:13:42;7.13;;;5.37;;
1467;SDS011;727;48.892;9.544;2023-02-18T08:16:09;19.73;;;8.63;;
1467;SDS011;727;48.892;9.544;2023-02-18T08:18:36;7.40;;;4.17;;
1467;SDS011;727;48.892;9.544;2023-02-18T08:21:03;8.80;;;3.97;;
1467;SDS011;727;48.892;9.544;2023-02-18T08:23:29;13.33;;;9.97;;
1467;SDS011;727;48.892;9.544;2023-02-18T08:25:56;7.47;;;4.03;;
1467;SDS011;727;48.892;9.544;2023-02-18T08:28:24;17.07;;;10.03;;
1467;SDS011;727;48.892;9.544;2023-02-18T08:30:52;9.73;;;4.80;;
1467;SDS011;727;48.892;9.544;2023-02-18T08:33:19;6.70;;;5.27;;
1467;SDS011;727;48.892;9.544;2023-02-18T08:35:47;3.80;;;3.40;;
1467;SDS011;727;48.892;9.544;2023-02-18T08:38:15;8.10;;;6.20;;
1467;SDS011;727;48.892;9.544;2023-02-18T08:40:42;13.20;;;4.70;;
1467;SDS011;727;48.892;9.544;2023-02-18T08:43:09;4.33;;;3.20;;
1467;SDS011;727;48.892;9.544;2023-02-18T08:45:37;4.47;;;2.50;;
1467;SDS011;727;48.892;9.544;2023-02-18T08:48:04;15.97;;;5.97;;
1467;SDS011;727;48.892;9.544;2023-02-18T08:50:32;12.10;;;5.70;;
1467;SDS011;727;48.892;9.544;2023-02-18T08:52:59;5.33;;;4.10;;
1467;SDS011;727;48.892;9.544;2023-02-18T08:55:28;3.70;;;2.90;;
1467;SDS011;727;48.892;9.544;2023-02-18T08:57:55;6.60;;;3.57;;
1467;SDS011;727;48.892;9.544;2023-02-18T09:00:22;4.57;;;2.63;;
1467;SDS011;727;48.892;9.544;2023-02-18T09:02:51;4.30;;;3.13;;
1467;SDS011;727;48.892;9.544;2023-02-18T09:05:17;6.60;;;3.83;;
1467;SDS011;727;48.892;9.544;2023-02-18T09:07:44;3.73;;;2.37;;
1467;SDS011;727;48.892;9.544;2023-02-18T09:10:11;10.23;;;4.20;;
1467;SDS011;727;48.892;9.544;2023-02-18T09:12:38;2.80;;;2.30;;
1467;SDS011;727;48.892;9.544;2023-02-18T09:15:05;2.23;;;2.03;;
1467;SDS011;727;48.892;9.544;2023-02-18T09:17:33;4.00;;;2.27;;
1467;SDS011;727;48.892;9.544;2023-02-18T09:20:01;5.93;;;2.20;;
1467;SDS011;727;48.892;9.544;2023-02-18T09:22:29;5.67;;;2.00;;
1467;SDS011;727;48.892;9.544;2023-02-18T09:24:56;4.50;;;2.70;;
1467;SDS011;727;48.892;9.544;2023-02-18T09:27:23;5.17;;;1.67;;
1467;SDS011;727;48.892;9.544;2023-02-18T09:29:50;1.70;;;1.60;;
1467;SDS011;727;48.892;9.544;2023-02-18T09:32:17;11.17;;;3.63;;
1467;SDS011;727;48.892;9.544;2023-02-18T09:34:44;4.30;;;2.27;;
1467;SDS011;727;48.892;9.544;2023-02-18T09:37:12;2.13;;;1.93;;
1467;SDS011;727;48.892;9.544;2023-02-18T09:39:39;3.47;;;3.00;;
1467;SDS011;727;48.892;9.544;2023-02-18T09:42:06;4.77;;;2.40;;
1467;SDS011;727;48.892;9.544;2023-02-18T09:44:39;2.53;;;1.83;;
1467;SDS011;727;48.892;9.544;2023-02-18T09:47:09;2.90;;;2.00;;
1467;SDS011;727;48.892;9.544;2023-02-18T09:49:39;1.60;;;1.50;;
1467;SDS011;727;48.892;9.544;2023-02-18T09:52:10;1.93;;;1.83;;
1467;SDS011;727;48.892;9.544;2023-02-18T09:54:40;2.40;;;2.00;;
1467;SDS011;727;48.892;9.544;2023-02-18T09:57:07;2.27;;;1.60;;
1467;SDS011;727;48.892;9.544;2023-02-18T09:59:47;8.60;;;2.03;;
1467;SDS011;727;48.892;9.544;2023-02-18T10:02:21;3.10;;;1.53;;
1467;SDS011;727;48.892;9.544;2023-02-18T10:04:49;3.43;;;1.70;;
1467;SDS011;727;48.892;9.544;2023-02-18T10:07:20;10.77;;;2.90;;
1467;SDS011;727;48.892;9.544;2023-02-18T10:09:51;11.03;;;2.87;;
1467;SDS011;727;48.892;9.544;2023-02-18T10:12:19;5.13;;;2.37;;
1467;SDS011;727;48.892;9.544;2023-02-18T10:14:49;4.00;;;1.60;;
1467;SDS011;727;48.892;9.544;2023-02-18T10:17:18;2.30;;;1.60;;
1467;SDS011;727;48.892;9.544;2023-02-18T10:19:47;1.60;;;1.50;;
1467;SDS011;727;48.892;9.544;2023-02-18T10:22:15;2.30;;;1.43;;
1467;SDS011;727;48.892;9.544;2023-02-18T10:24:47;2.60;;;1.67;;
1467;SDS011;727;48.892;9.544;2023-02-18T10:27:17;2.90;;;1.93;;
1467;SDS011;727;48.892;9.544;2023-02-18T10:29:49;2.67;;;1.50;;
1467;SDS011;727;48.892;9.544;2023-02-18T10:32:18;3.57;;;1.83;;
1467;SDS011;727;48.892;9.544;2023-02-18T10:34:48;1.83;;;1.67;;
1467;SDS011;727;48.892;9.544;2023-02-18T10:37:24;4.33;;;1.50;;
1467;SDS011;727;48.892;9.544;2023-02-18T10:40:10;1.93;;;1.40;;
1467;SDS011;727;48.892;9.544;2023-02-18T10:42:55;1.83;;;1.40;;
1467;SDS011;727;48.892;9.544;2023-02-18T10:45:31;3.20;;;1.40;;
1467;SDS011;727;48.892;9.544;2023-02-18T10:48:10;4.17;;;1.17;;
1467;SDS011;727;48.892;9.544;2023-02-18T10:50:46;2.60;;;1.67;;
1467;SDS011;727;48.892;9.544;2023-02-18T10:53:15;5.10;;;2.33;;
1467;SDS011;727;48.892;9.544;2023-02-18T10:55:46;2.30;;;1.90;;
1467;SDS011;727;48.892;9.544;2023-02-18T10:58:25;1.33;;;1.23;;
1467;SDS011;727;48.892;9.544;2023-02-18T11:00:54;3.37;;;2.00;;
1467;SDS011;727;48.892;9.544;2023-02-18T11:03:22;1.70;;;1.60;;
1467;SDS011;727;48.892;9.544;2023-02-18T11:05:51;3.40;;;2.17;;
1467;SDS011;727;48.892;9.544;2023-02-18T11:08:22;7.03;;;3.97;;
1467;SDS011;727;48.892;9.544;2023-02-18T11:10:52;10.27;;;4.40;;
1467;SDS011;727;48.892;9.544;2023-02-18T11:13:25;7.83;;;4.63;;
1467;SDS011;727;48.892;9.544;2023-02-18T11:15:57;5.13;;;3.20;;
1467;SDS011;727;48.892;9.544;2023-02-18T11:18:27;1.80;;;1.50;;
1467;SDS011;727;48.892;9.544;2023-02-18T11:20:59;1.90;;;1.70;;
1467;SDS011;727;48.892;9.544;2023-02-18T11:23:31;1.40;;;1.30;;
1467;SDS011;727;48.892;9.544;2023-02-18T11:26:11;5.63;;;1.70;;
1467;SDS011;727;48.892;9.544;2023-02-18T11:28:41;1.30;;;1.10;;
1467;SDS011;727;48.892;9.544;2023-02-18T11:31:10;1.30;;;1.20;;
1467;SDS011;727;48.892;9.544;2023-02-18T11:33:47;5.43;;;1.70;;
1467;SDS011;727;48.892;9.544;2023-02-18T11:36:17;1.60;;;1.30;;
1467;SDS011;727;48.892;9.544;2023-02-18T11:38:49;2.23;;;1.30;;
1467;SDS011;727;48.892;9.544;2023-02-18T11:41:19;2.60;;;1.50;;
1467;SDS011;727;48.892;9.544;2023-02-18T11:43:54;2.50;;;1.60;;
1467;SDS011;727;48.892;9.544;2023-02-18T11:46:22;2.80;;;1.50;;
1467;SDS011;727;48.892;9.544;2023-02-18T11:48:53;2.40;;;1.33;;
1467;SDS011;727;48.892;9.544;2023-02-18T11:51:22;2.60;;;1.57;;
1467;SDS011;727;48.892;9.544;2023-02-18T11:53:58;3.53;;;1.67;;
1467;SDS011;727;48.892;9.544;2023-02-18T11:56:29;9.60;;;2.10;;
1467;SDS011;727;48.892;9.544;2023-02-18T11:58:58;5.67;;;1.77;;
1467;SDS011;727;48.892;9.544;2023-02-18T12:01:30;5.47;;;2.07;;
1467;SDS011;727;48.892;9.544;2023-02-18T12:04:05;2.93;;;1.57;;
1467;SDS011;727;48.892;9.544;2023-02-18T12:06:37;2.30;;;1.30;;
1467;SDS011;727;48.892;9.544;2023-02-18T12:09:13;2.73;;;1.47;;
1467;SDS011;727;48.892;9.544;2023-02-18T12:11:48;2.67;;;1.37;;
1467;SDS011;727;48.892;9.544;2023-02-18T12:14:18;2.37;;;2.17;;
1467;SDS011;727;48.892;9.544;2023-02-18T12:16:51;1.40;;;1.30;;
1467;SDS011;727;48.892;9.544;2023-02-18T12:19:39;2.40;;;2.00;;
1467;SDS011;727;48.892;9.544;2023-02-18T12:22:15;2.70;;;2.27;;
1467;SDS011;727;48.892;9.544;2023-02-18T12:24:51;4.33;;;2.87;;
1467;SDS011;727;48.892;9.544;2023-02-18T12:27:28;5.63;;;4.00;;
1467;SDS011;727;48.892;9.544;2023-02-18T12:32:57;2.80;;;2.60;;
1467;SDS011;727;48.892;9.544;2023-02-18T12:35:36;5.93;;;5.17;;
1467;SDS011;727;48.892;9.544;2023-02-18T12:38:17;16.60;;;11.33;;
1467;SDS011;727;48.892;9.544;2023-02-18T12:40:57;5.83;;;5.37;;
1467;SDS011;727;48.892;9.544;2023-02-18T12:43:41;4.33;;;2.30;;
1467;SDS011;727;48.892;9.544;2023-02-18T12:46:21;3.13;;;2.40;;
1467;SDS011;727;48.892;9.544;2023-02-18T12:49:00;3.23;;;2.23;;
1467;SDS011;727;48.892;9.544;2023-02-18T12:51:45;4.13;;;3.73;;
1467;SDS011;727;48.892;9.544;2023-02-18T12:54:26;6.03;;;1.90;;
1467;SDS011;727;48.892;9.544;2023-02-18T12:57:11;5.87;;;2.47;;
1467;SDS011;727;48.892;9.544;2023-02-18T12:59:57;4.60;;;3.33;;
1467;SDS011;727;48.892;9.544;2023-02-18T13:02:49;5.30;;;2.43;;
1467;SDS011;727;48.892;9.544;2023-02-18T13:05:30;3.30;;;3.00;;
1467;SDS011;727;48.892;9.544;2023-02-18T13:08:20;2.97;;;1.73;;
1467;SDS011;727;48.892;9.544;2023-02-18T13:11:00;3.20;;;1.80;;
1467;SDS011;727;48.892;9.544;2023-02-18T13:13:33;2.40;;;1.80;;
1467;SDS011;727;48.892;9.544;2023-02-18T13:16:08;3.20;;;2.03;;
1467;SDS011;727;48.892;9.544;2023-02-18T13:18:38;3.80;;;2.60;;
1467;SDS011;727;48.892;9.544;2023-02-18T13:21:10;4.50;;;4.10;;
1467;SDS011;727;48.892;9.544;2023-02-18T13:23:38;4.73;;;3.00;;
1467;SDS011;727;48.892;9.544;2023-02-18T13:26:11;8.33;;;5.87;;
1467;SDS011;727;48.892;9.544;2023-02-18T13:28:41;5.37;;;4.83;;
1467;SDS011;727;48.892;9.544;2023-02-18T13:31:16;2.37;;;2.17;;
1467;SDS011;727;48.892;9.544;2023-02-18T13:33:52;3.23;;;2.93;;
1467;SDS011;727;48.892;9.544;2023-02-18T13:36:30;2.50;;;2.30;;
1467;SDS011;727;48.892;9.544;2023-02-18T13:39:06;2.57;;;2.30;;
1467;SDS011;727;48.892;9.544;2023-02-18T13:41:35;3.87;;;2.47;;
1467;SDS011;727;48.892;9.544;2023-02-18T13:44:07;3.20;;;2.00;;
1467;SDS011;727;48.892;9.544;2023-02-18T13:46:56;4.80;;;2.47;;
1467;SDS011;727;48.892;9.544;2023-02-18T13:49:25;7.27;;;1.70;;
1467;SDS011;727;48.892;9.544;2023-02-18T13:51:57;1.93;;;1.83;;
1467;SDS011;727;48.892;9.544;2023-02-18T13:54:25;3.60;;;2.00;;
1467;SDS011;727;48.892;9.544;2023-02-18T13:56:56;2.30;;;2.10;;
1467;SDS011;727;48.892;9.544;2023-02-18T13:59:28;2.50;;;1.97;;
1467;SDS011;727;48.892;9.544;2023-02-18T14:02:21;1.77;;;1.67;;
1467;SDS011;727;48.892;9.544;2023-02-18T14:05:13;2.40;;;2.20;;
1467;SDS011;727;48.892;9.544;2023-02-18T14:07:46;4.03;;;1.90;;
1467;SDS011;727;48.892;9.544;2023-02-18T14:10:25;2.17;;;1.63;;
1467;SDS011;727;48.892;9.544;2023-02-18T14:13:02;1.70;;;1.60;;
1467;SDS011;727;48.892;9.544;2023-02-18T14:15:47;3.93;;;1.97;;
1467;SDS011;727;48.892;9.544;2023-02-18T14:18:25;7.33;;;1.97;;
1467;SDS011;727;48.892;9.544;2023-02-18T14:23:54;5.00;;;2.67;;
1467;SDS011;727;48.892;9.544;2023-02-18T14:26:24;1.60;;;1.50;;
1467;SDS011;727;48.892;9.544;2023-02-18T14:28:55;3.70;;;1.97;;
1467;SDS011;727;48.892;9.544;2023-02-18T14:37:45;2.93;;;1.70;;
1467;SDS011;727;48.892;9.544;2023-02-18T14:40:44;2.33;;;2.13;;
1467;SDS011;727;48.892;9.544;2023-02-18T14:43:38;2.50;;;2.00;;
1467;SDS011;727;48.892;9.544;2023-02-18T14:46:17;3.13;;;2.67;;
1467;SDS011;727;48.892;9.544;2023-02-18T14:48:56;4.97;;;2.90;;
1467;SDS011;727;48.892;9.544;2023-02-18T14:51:43;2.40;;;2.20;;
1467;SDS011;727;48.892;9.544;2023-02-18T14:54:13;2.80;;;2.23;;
1467;SDS011;727;48.892;9.544;2023-02-18T14:56:44;2.93;;;2.73;;
1467;SDS011;727;48.892;9.544;2023-02-18T14:59:20;2.87;;;1.83;;
1467;SDS011;727;48.892;9.544;2023-02-18T15:01:49;2.40;;;2.20;;
1467;SDS011;727;48.892;9.544;2023-02-18T15:04:19;9.03;;;2.50;;
1467;SDS011;727;48.892;9.544;2023-02-18T15:06:53;2.17;;;1.90;;
1467;SDS011;727;48.892;9.544;2023-02-18T15:09:24;7.20;;;2.73;;
1467;SDS011;727;48.892;9.544;2023-02-18T15:11:51;2.90;;;2.60;;
1467;SDS011;727;48.892;9.544;2023-02-18T15:14:23;2.10;;;1.90;;
1467;SDS011;727;48.892;9.544;2023-02-18T15:16:52;2.90;;;2.37;;
1467;SDS011;727;48.892;9.544;2023-02-18T15:19:19;2.50;;;2.30;;
1467;SDS011;727;48.892;9.544;2023-02-18T15:21:50;2.53;;;2.23;;
1467;SDS011;727;48.892;9.544;2023-02-18T15:24:22;5.57;;;2.57;;
1467;SDS011;727;48.892;9.544;2023-02-18T15:26:51;2.83;;;2.43;;
1467;SDS011;727;48.892;9.544;2023-02-18T15:29:20;1.83;;;1.73;;
1467;SDS011;727;48.892;9.544;2023-02-18T15:31:48;3.43;;;2.57;;
1467;SDS011;727;48.892;9.544;2023-02-18T15:37:04;4.73;;;3.10;;
1467;SDS011;727;48.892;9.544;2023-02-18T15:39:32;5.07;;;2.90;;
1467;SDS011;727;48.892;9.544;2023-02-18T15:42:05;5.20;;;4.70;;
1467;SDS011;727;48.892;9.544;2023-02-18T15:44:34;6.70;;;3.37;;
1467;SDS011;727;48.892;9.544;2023-02-18T15:47:03;4.70;;;3.27;;
1467;SDS011;727;48.892;9.544;2023-02-18T15:49:32;6.73;;;3.70;;
1467;SDS011;727;48.892;9.544;2023-02-18T15:52:03;6.17;;;4.40;;
1467;SDS011;727;48.892;9.544;2023-02-18T15:54:32;8.13;;;5.47;;
1467;SDS011;727;48.892;9.544;2023-02-18T15:57:02;12.93;;;8.57;;
1467;SDS011;727;48.892;9.544;2023-02-18T15:59:31;11.33;;;7.90;;
1467;SDS011;727;48.892;9.544;2023-02-18T16:02:02;3.17;;;2.80;;
1467;SDS011;727;48.892;9.544;2023-02-18T16:04:40;4.47;;;3.80;;
1467;SDS011;727;48.892;9.544;2023-02-18T16:07:25;4.00;;;2.93;;
1467;SDS011;727;48.892;9.544;2023-02-18T16:09:59;7.87;;;7.20;;
1467;SDS011;727;48.892;9.544;2023-02-18T16:12:43;8.73;;;7.30;;
1467;SDS011;727;48.892;9.544;2023-02-18T16:15:13;51.70;;;34.27;;
1467;SDS011;727;48.892;9.544;2023-02-18T16:17:45;33.73;;;24.47;;
1467;SDS011;727;48.892;9.544;2023-02-18T16:20:17;12.20;;;10.50;;